createdAt,value
2018-12-10T00:00:32.576Z,96818.80
2018-12-10T00:03:16.433Z,96823.05
2018-12-10T00:05:51.444Z,96836.39
2018-12-10T00:08:23.608Z,96833.19
2018-12-10T00:10:55.849Z,96843.70
2018-12-10T00:13:28.738Z,96842.00
2018-12-10T00:16:00.955Z,96853.09
2018-12-10T00:18:34.060Z,96843.70
2018-12-10T00:21:07.298Z,96845.11
2018-12-10T00:23:38.063Z,96850.14
2018-12-10T00:26:14.898Z,96853.73
2018-12-10T00:28:47.087Z,96855.73
2018-12-10T00:31:23.231Z,96855.34
2018-12-10T00:33:59.424Z,96845.17
2018-12-10T00:36:36.023Z,96861.05
2018-12-10T00:39:12.282Z,96864.06
2018-12-10T00:41:44.629Z,96875.13
2018-12-10T00:44:20.887Z,96885.55
2018-12-10T00:46:53.278Z,96884.05
2018-12-10T00:49:26.039Z,96888.16
2018-12-10T00:51:58.704Z,96883.07
2018-12-10T00:54:30.321Z,96869.06
2018-12-10T00:57:02.914Z,96891.41
2018-12-10T00:59:35.800Z,96895.65
2018-12-10T01:02:08.051Z,96899.92
2018-12-10T01:04:41.345Z,96892.43
2018-12-10T01:07:14.068Z,96897.97
2018-12-10T01:09:46.164Z,96894.91
2018-12-10T01:12:17.340Z,96891.13
2018-12-10T01:14:50.488Z,96899.23
2018-12-10T01:17:23.601Z,96903.91
2018-12-10T01:20:00.529Z,96899.27
2018-12-10T01:22:32.815Z,96899.02
2018-12-10T01:25:05.404Z,96905.54
2018-12-10T01:27:38.439Z,96904.77
2018-12-10T01:30:14.802Z,96902.83
2018-12-10T01:32:47.442Z,96901.80
2018-12-10T01:35:20.577Z,96902.92
2018-12-10T01:37:53.386Z,96910.75
2018-12-10T01:40:26.465Z,96913.55
2018-12-10T01:42:56.924Z,96903.94
2018-12-10T01:45:29.937Z,96913.06
2018-12-10T01:48:02.963Z,96920.56
2018-12-10T01:50:39.430Z,96925.53
2018-12-10T01:53:10.139Z,96920.02
2018-12-10T01:55:47.429Z,96926.56
2018-12-10T01:58:20.584Z,96923.77
2018-12-10T02:00:57.558Z,96925.73
2018-12-10T02:03:34.717Z,96925.44
2018-12-10T02:06:11.139Z,96928.00
2018-12-10T02:08:44.267Z,96921.29
2018-12-10T02:11:20.476Z,96923.03
2018-12-10T02:13:52.632Z,96924.42
2018-12-10T02:16:25.020Z,96920.77
2018-12-10T02:18:57.485Z,96933.30
2018-12-10T02:21:34.658Z,96931.51
2018-12-10T02:24:06.819Z,96934.28
2018-12-10T02:26:39.000Z,96938.92
2018-12-10T02:29:15.239Z,96931.19
2018-12-10T02:31:47.489Z,96927.39
2018-12-10T02:34:20.814Z,96926.30
2018-12-10T02:36:53.796Z,96937.25
2018-12-10T02:39:26.791Z,96936.89
2018-12-10T02:42:03.673Z,96929.95
2018-12-10T02:44:40.108Z,96933.45
2018-12-10T02:47:16.257Z,96933.58
2018-12-10T02:49:48.417Z,96949.22
2018-12-10T02:52:21.549Z,96936.27
2018-12-10T02:54:54.406Z,96947.67
2018-12-10T02:57:30.499Z,96942.91
2018-12-10T03:00:06.745Z,96948.03
2018-12-10T03:02:41.763Z,96950.46
2018-12-10T03:05:13.852Z,96946.48
2018-12-10T03:07:46.434Z,96956.24
2018-12-10T03:10:18.696Z,96954.06
2018-12-10T03:12:54.820Z,96949.54
2018-12-10T03:22:56.971Z,96956.75
2018-12-10T03:25:29.289Z,96959.11
2018-12-10T03:28:02.035Z,96954.02
2018-12-10T03:30:34.202Z,96948.86
2018-12-10T03:33:06.207Z,96951.63
2018-12-10T03:35:38.595Z,96957.47
2018-12-10T03:38:11.560Z,96955.25
2018-12-10T03:40:43.742Z,96965.39
2018-12-10T03:43:13.975Z,96969.30
2018-12-10T03:45:45.690Z,96980.12
2018-12-10T03:48:21.773Z,96978.21
2018-12-10T03:50:57.927Z,96981.75
2018-12-10T03:53:30.243Z,96976.53
2018-12-10T03:56:02.565Z,96975.71
2018-12-10T03:58:34.858Z,96973.41
2018-12-10T04:01:07.931Z,96967.38
2018-12-10T04:03:38.376Z,96967.30
2018-12-10T04:06:11.271Z,96976.10
2018-12-10T04:08:47.445Z,96980.83
2018-12-10T04:11:17.556Z,96979.44
2018-12-10T04:13:47.674Z,96967.59
2018-12-10T04:16:20.009Z,96971.38
2018-12-10T04:18:52.387Z,96987.39
2018-12-10T04:21:24.635Z,96977.77
2018-12-10T04:24:00.942Z,96977.13
2018-12-10T04:26:37.008Z,96983.21
2018-12-10T04:29:13.356Z,96988.88
2018-12-10T04:31:49.719Z,96985.02
2018-12-10T04:34:21.717Z,96995.02
2018-12-10T04:36:51.941Z,96999.55
2018-12-10T04:39:24.977Z,96984.85
2018-12-10T04:42:01.763Z,96986.08
2018-12-10T04:44:32.362Z,96994.55
2018-12-10T04:47:09.327Z,96985.72
2018-12-10T04:49:45.299Z,96982.62
2018-12-10T04:52:21.491Z,96993.20
2018-12-10T04:54:57.821Z,97000.98
2018-12-10T04:57:28.714Z,97009.09
2018-12-10T05:00:01.128Z,97006.69
2018-12-10T05:02:37.303Z,97016.25
2018-12-10T05:05:13.404Z,97023.41
2018-12-10T05:07:49.462Z,97023.05
2018-12-10T05:10:21.995Z,97036.22
2018-12-10T05:12:54.940Z,97036.84
2018-12-10T05:15:27.137Z,97036.78
2018-12-10T05:17:57.384Z,97049.38
2018-12-10T05:20:34.303Z,97051.26
2018-12-10T05:23:12.029Z,97051.93
2018-12-10T05:25:44.617Z,97052.91
2018-12-10T05:28:20.712Z,97066.81
2018-12-10T05:30:53.056Z,97067.80
2018-12-10T05:33:25.935Z,97071.11
2018-12-10T05:35:58.023Z,97088.96
2018-12-10T05:38:34.417Z,97104.52
2018-12-10T05:41:06.633Z,97095.06
2018-12-10T05:43:42.824Z,97088.81
2018-12-10T05:46:19.096Z,97115.72
2018-12-10T05:48:49.176Z,97083.86
2018-12-10T05:51:25.369Z,97110.21
2018-12-10T05:53:58.299Z,97116.32
2018-12-10T05:56:30.535Z,97126.59
2018-12-10T05:59:02.614Z,97131.88
2018-12-10T06:01:35.952Z,97123.02
2018-12-10T06:04:13.169Z,97115.08
2018-12-10T06:06:43.571Z,97125.00
2018-12-10T06:09:16.451Z,97120.80
2018-12-10T06:11:48.822Z,97128.01
2018-12-10T06:14:20.997Z,97139.45
2018-12-10T06:16:57.111Z,97135.26
2018-12-10T06:19:27.749Z,97147.38
2018-12-10T06:22:00.560Z,97147.95
2018-12-10T06:24:36.618Z,97144.67
2018-12-10T06:27:09.826Z,97143.33
2018-12-10T06:29:42.068Z,97147.37
2018-12-10T06:32:18.439Z,97161.72
2018-12-10T06:34:54.634Z,97158.84
2018-12-10T06:37:37.567Z,97161.95
2018-12-10T06:40:06.104Z,97155.60
2018-12-10T06:42:42.450Z,97154.53
2018-12-10T06:45:15.410Z,97156.73
2018-12-10T06:47:45.658Z,97159.04
2018-12-10T06:50:18.032Z,97157.80
2018-12-10T06:52:54.317Z,97168.29
2018-12-10T06:55:27.318Z,97176.81
2018-12-10T06:57:59.358Z,97176.00
2018-12-10T07:00:31.560Z,97177.05
2018-12-10T07:03:03.927Z,97185.75
2018-12-10T07:05:39.878Z,97196.16
2018-12-10T07:08:10.197Z,97201.72
2018-12-10T07:10:43.173Z,97210.05
2018-12-10T07:13:19.287Z,97220.50
2018-12-10T07:15:52.191Z,97219.47
2018-12-10T07:18:24.437Z,97215.59
2018-12-10T07:20:54.507Z,97225.03
2018-12-10T07:23:26.817Z,97231.31
2018-12-10T07:26:02.928Z,97251.06
2018-12-10T07:28:39.043Z,97256.78
2018-12-10T07:31:11.959Z,97250.28
2018-12-10T07:33:43.200Z,97237.38
2018-12-10T07:36:20.296Z,97264.53
2018-12-10T07:38:52.570Z,97269.44
2018-12-10T07:41:28.797Z,97264.05
2018-12-10T07:44:00.790Z,97264.61
2018-12-10T07:46:36.879Z,97273.05
2018-12-10T07:49:09.760Z,97271.65
2018-12-10T07:51:42.151Z,97281.14
2018-12-10T07:54:19.590Z,97281.64
2018-12-10T07:56:51.676Z,97293.41
2018-12-10T07:59:22.005Z,97301.00
2018-12-10T08:01:54.938Z,97300.02
2018-12-10T08:04:30.975Z,97293.55
2018-12-10T08:07:03.941Z,97295.95
2018-12-10T08:09:40.179Z,97317.58
2018-12-10T08:12:16.377Z,97312.17
2018-12-10T08:14:48.552Z,97306.38
2018-12-10T08:17:18.740Z,97308.50
2018-12-10T08:19:51.342Z,97307.02
2018-12-10T08:22:24.383Z,97322.04
2018-12-10T08:24:57.212Z,97321.59
2018-12-10T08:27:29.413Z,97322.53
2018-12-10T08:30:06.303Z,97326.55
2018-12-10T08:32:36.622Z,97338.77
2018-12-10T08:35:12.828Z,97344.59
2018-12-10T08:37:48.813Z,97356.87
2018-12-10T08:40:21.145Z,97361.78
2018-12-10T08:42:55.030Z,97363.73
2018-12-10T08:45:27.228Z,97363.77
2018-12-10T08:48:03.231Z,97365.16
2018-12-10T08:50:39.451Z,97357.42
2018-12-10T08:53:12.415Z,97377.29
2018-12-10T08:55:44.763Z,97382.30
2018-12-10T08:58:20.973Z,97380.55
2018-12-10T09:00:53.200Z,97369.02
2018-12-10T09:03:25.990Z,97373.63
2018-12-10T09:05:58.364Z,97378.81
2018-12-10T09:08:30.690Z,97370.31
2018-12-10T09:11:02.820Z,97379.95
2018-12-10T09:13:38.922Z,97374.05
2018-12-10T09:16:09.269Z,97377.35
2018-12-10T09:18:42.261Z,97387.13
2018-12-10T09:21:14.335Z,97386.27
2018-12-10T09:23:47.085Z,97388.87
2018-12-10T09:26:23.255Z,97391.58
2018-12-10T09:28:59.417Z,97398.83
2018-12-10T09:31:31.668Z,97400.89
2018-12-10T09:34:07.962Z,97399.33
2018-12-10T09:36:44.123Z,97394.66
2018-12-10T09:39:15.003Z,97391.58
2018-12-10T09:41:45.048Z,97391.80
2018-12-10T09:44:21.281Z,97386.81
2018-12-10T09:46:58.757Z,97385.11
2018-12-10T09:49:25.674Z,97386.36
2018-12-10T09:51:58.164Z,97395.36
2018-12-10T09:54:34.181Z,97390.27
2018-12-10T09:57:07.869Z,97393.27
2018-12-10T09:59:40.265Z,97394.13
2018-12-10T10:02:16.317Z,97397.57
2018-12-10T10:04:46.666Z,97390.81
2018-12-10T10:07:18.992Z,97400.87
2018-12-10T10:09:58.740Z,97399.96
2018-12-10T10:12:32.664Z,97402.96
2018-12-10T10:15:05.464Z,97395.15
2018-12-10T10:17:42.387Z,97401.61
2018-12-10T10:20:19.353Z,97395.31
2018-12-10T10:22:51.517Z,97387.24
2018-12-10T10:25:23.707Z,97376.34
2018-12-10T10:27:59.951Z,97390.36
2018-12-10T10:30:36.132Z,97392.19
2018-12-10T10:33:09.182Z,97383.23
2018-12-10T10:35:45.351Z,97387.83
2018-12-10T10:38:18.354Z,97386.70
2018-12-10T10:40:48.730Z,97384.44
2018-12-10T10:43:19.747Z,97390.36
2018-12-10T10:45:53.213Z,97398.12
2018-12-10T10:48:25.430Z,97395.42
2018-12-10T10:50:58.509Z,97394.06
2018-12-10T10:53:31.517Z,97396.05
2018-12-10T10:56:04.760Z,97398.77
2018-12-10T10:58:37.627Z,97394.52
2018-12-10T11:01:19.365Z,97395.48
2018-12-10T11:03:52.337Z,97389.12
2018-12-10T11:06:25.285Z,97382.70
2018-12-10T11:08:58.211Z,97382.27
2018-12-10T11:11:30.365Z,97379.20
2018-12-10T11:14:06.690Z,97381.23
2018-12-10T11:16:43.608Z,97387.19
2018-12-10T11:19:15.964Z,97389.38
2018-12-10T11:21:53.025Z,97373.47
2018-12-10T11:24:29.214Z,97380.34
2018-12-10T11:27:06.102Z,97382.37
2018-12-10T11:29:39.081Z,97384.73
2018-12-10T11:32:11.285Z,97389.46
2018-12-10T11:34:49.447Z,97394.30
2018-12-10T11:37:22.461Z,97380.95
2018-12-10T11:39:52.876Z,97384.61
2018-12-10T11:42:25.130Z,97383.13
2018-12-10T11:44:57.479Z,97391.25
2018-12-10T11:47:29.941Z,97406.27
2018-12-10T11:50:02.130Z,97407.80
2018-12-10T11:52:37.820Z,97424.78
2018-12-10T11:55:09.076Z,97427.81
2018-12-10T11:57:41.461Z,97433.05
2018-12-10T12:00:29.638Z,97436.23
2018-12-10T12:03:00.817Z,97434.58
2018-12-10T12:05:34.023Z,97444.81
2018-12-10T12:08:06.345Z,97454.61
2018-12-10T12:10:43.369Z,97461.08
2018-12-10T12:13:20.286Z,97471.66
2018-12-10T12:15:53.214Z,97475.11
2018-12-10T12:18:26.262Z,97470.16
2018-12-10T12:20:58.598Z,97472.11
2018-12-10T12:23:36.556Z,97482.91
2018-12-10T12:26:10.233Z,97472.34
2018-12-10T12:28:47.099Z,97478.00
2018-12-10T12:31:23.850Z,97471.59
2018-12-10T12:33:59.986Z,97472.39
2018-12-10T12:36:32.938Z,97470.95
2018-12-10T12:39:06.697Z,97468.59
2018-12-10T12:41:40.315Z,97470.28
2018-12-10T12:44:17.311Z,97479.27
2018-12-10T12:46:53.647Z,97474.78
2018-12-10T12:49:25.833Z,97470.09
2018-12-10T12:51:58.316Z,97468.98
2018-12-10T12:54:30.574Z,97469.95
2018-12-10T12:57:03.533Z,97473.70
2018-12-10T12:59:39.692Z,97479.16
2018-12-10T13:02:11.742Z,97477.45
2018-12-10T13:04:43.956Z,97475.20
2018-12-10T13:07:16.372Z,97476.63
2018-12-10T13:09:48.452Z,97479.55
2018-12-10T13:12:20.552Z,97481.39
2018-12-10T13:14:53.067Z,97476.13
2018-12-10T13:17:25.824Z,97478.07
2018-12-10T13:19:57.979Z,97471.95
2018-12-10T13:22:28.879Z,97479.78
2018-12-10T13:24:59.078Z,97459.28
2018-12-10T13:27:35.248Z,97478.92
2018-12-10T13:30:08.362Z,97479.62
2018-12-10T13:32:41.241Z,97483.69
2018-12-10T13:35:13.268Z,97488.70
2018-12-10T13:37:46.005Z,97490.93
2018-12-10T13:40:19.789Z,97482.19
2018-12-10T13:42:49.967Z,97491.95
2018-12-10T13:45:23.298Z,97483.03
2018-12-10T13:47:56.109Z,97481.96
2018-12-10T13:50:28.374Z,97481.33
2018-12-10T13:52:59.394Z,97488.80
2018-12-10T13:55:31.743Z,97487.38
2018-12-10T13:58:07.927Z,97497.17
2018-12-10T14:00:44.810Z,97495.21
2018-12-10T14:03:15.276Z,97498.23
2018-12-10T14:05:47.678Z,97499.16
2018-12-10T14:08:21.357Z,97502.44
2018-12-10T14:10:53.747Z,97496.92
2018-12-10T14:13:25.894Z,97489.38
2018-12-10T14:16:02.105Z,97496.41
2018-12-10T14:18:34.357Z,97495.78
2018-12-10T14:21:06.624Z,97504.92
2018-12-10T14:23:38.725Z,97505.86
2018-12-10T14:26:08.888Z,97510.48
2018-12-10T14:28:41.147Z,97512.20
2018-12-10T14:31:17.229Z,97518.84
2018-12-10T14:33:50.295Z,97523.09
2018-12-10T14:36:27.314Z,97530.09
2018-12-10T14:38:59.668Z,97538.38
2018-12-10T14:41:32.552Z,97539.42
2018-12-10T14:44:05.520Z,97535.74
2018-12-10T14:46:37.753Z,97541.31
2018-12-10T14:49:15.144Z,97544.66
2018-12-10T14:51:47.947Z,97542.25
2018-12-10T14:54:20.046Z,97544.80
2018-12-10T14:56:52.208Z,97539.28
2018-12-10T14:59:28.313Z,97540.72
2018-12-10T15:02:04.631Z,97536.33
2018-12-10T15:04:40.696Z,97540.33
2018-12-10T15:07:13.792Z,97538.81
2018-12-10T15:09:49.975Z,97537.70
2018-12-10T15:12:26.398Z,97525.75
2018-12-10T15:14:59.353Z,97523.89
2018-12-10T15:17:31.695Z,97531.17
2018-12-10T15:20:07.880Z,97521.06
2018-12-10T15:22:44.059Z,97512.59
2018-12-10T15:25:16.217Z,97494.59
2018-12-10T15:27:48.583Z,97500.48
2018-12-10T15:30:20.686Z,97493.41
2018-12-10T15:32:57.674Z,97500.88
2018-12-10T15:35:31.046Z,97498.17
2018-12-10T15:38:03.647Z,97503.23
2018-12-10T15:40:37.769Z,97498.50
2018-12-10T15:43:14.068Z,97501.88
2018-12-10T15:45:46.403Z,97504.73
2018-12-10T15:48:19.302Z,97504.11
2018-12-10T15:50:52.944Z,97503.48
2018-12-10T15:53:25.874Z,97499.25
2018-12-10T15:56:02.055Z,97489.85
2018-12-10T15:58:39.105Z,97504.06
2018-12-10T16:01:14.789Z,97511.50
2018-12-10T16:03:51.670Z,97518.75
2018-12-10T16:06:24.421Z,97508.18
2018-12-10T16:09:00.500Z,97502.66
2018-12-10T16:11:30.753Z,97500.34
2018-12-10T16:14:07.075Z,97500.56
2018-12-10T16:16:39.464Z,97513.00
2018-12-10T16:19:11.473Z,97509.61
2018-12-10T16:21:47.697Z,97517.22
2018-12-10T16:24:19.818Z,97506.88
2018-12-10T16:26:55.979Z,97514.20
2018-12-10T16:29:28.072Z,97514.58
2018-12-10T16:32:01.066Z,97520.05
2018-12-10T16:34:33.459Z,97516.28
2018-12-10T16:37:06.447Z,97524.17
2018-12-10T16:39:36.690Z,97531.83
2018-12-10T16:42:12.858Z,97532.27
2018-12-10T16:54:48.104Z,97549.51
2018-12-10T16:57:24.141Z,97544.83
2018-12-10T16:59:56.523Z,97546.37
2018-12-10T17:02:29.301Z,97550.45
2018-12-10T17:05:05.823Z,97560.58
2018-12-10T17:07:41.952Z,97557.52
2018-12-10T17:10:18.100Z,97570.51
2018-12-10T17:12:54.202Z,97582.20
2018-12-10T17:15:30.373Z,97582.72
2018-12-10T17:18:02.480Z,97590.13
2018-12-10T17:20:34.908Z,97591.91
2018-12-10T17:23:07.886Z,97591.91
2018-12-10T17:25:38.075Z,97602.06
2018-12-10T17:28:14.379Z,97608.37
2018-12-10T17:30:47.314Z,97599.04
2018-12-10T17:33:19.361Z,97602.06
2018-12-10T17:35:56.370Z,97602.37
2018-12-10T17:38:29.397Z,97600.97
2018-12-10T17:41:06.583Z,97575.80
2018-12-10T17:43:37.033Z,97585.34
2018-12-10T17:46:10.390Z,97595.92
2018-12-10T17:48:41.251Z,97612.06
2018-12-10T17:51:14.215Z,97604.70
2018-12-10T17:58:46.551Z,97596.04
2018-12-10T18:01:19.539Z,97606.97
2018-12-10T18:03:56.881Z,97611.08
2018-12-10T18:06:29.944Z,97617.43
2018-12-10T18:09:07.498Z,97624.48
2018-12-10T18:11:41.850Z,97625.34
2018-12-10T18:14:14.904Z,97623.11
2018-12-10T18:16:48.007Z,97616.05
2018-12-10T18:19:21.506Z,97626.59
2018-12-10T18:21:58.388Z,97625.66
2018-12-10T18:24:31.490Z,97633.34
2018-12-10T18:27:03.746Z,97639.16
2018-12-10T18:29:39.889Z,97643.34
2018-12-10T18:32:12.870Z,97636.16
2018-12-10T18:34:49.640Z,97642.42
2018-12-10T18:37:20.682Z,97648.61
2018-12-10T18:39:57.770Z,97650.88
2018-12-10T18:42:30.353Z,97647.51
2018-12-10T18:45:02.907Z,97652.25
2018-12-10T18:47:35.862Z,97662.61
2018-12-10T18:50:12.075Z,97658.95
2018-12-10T18:52:44.883Z,97658.89
2018-12-10T18:55:15.253Z,97669.41
2018-12-10T18:57:46.161Z,97676.13
2018-12-10T19:00:18.358Z,97680.05
2018-12-10T19:02:54.500Z,97686.23
2018-12-10T19:05:30.755Z,97687.05
2018-12-10T19:08:01.225Z,97697.27
2018-12-10T19:10:34.049Z,97690.45
2018-12-10T19:13:07.134Z,97688.84
2018-12-10T19:15:40.074Z,97689.52
2018-12-10T19:18:16.485Z,97685.52
2018-12-10T19:20:49.393Z,97679.98
2018-12-10T19:23:22.329Z,97675.38
2018-12-10T19:25:53.286Z,97668.79
2018-12-10T19:28:26.267Z,97668.95
2018-12-10T19:30:59.353Z,97657.64
2018-12-10T19:33:32.417Z,97651.33
2018-12-10T19:36:05.447Z,97646.72
2018-12-10T19:38:38.236Z,97647.39
2018-12-10T19:41:15.490Z,97646.59
2018-12-10T19:43:52.433Z,97643.02
2018-12-10T19:46:23.528Z,97631.63
2018-12-10T19:48:59.813Z,97611.94
2018-12-10T19:51:35.993Z,97625.34
2018-12-10T19:54:08.418Z,97620.79
2018-12-10T19:56:41.453Z,97604.32
2018-12-10T19:59:13.636Z,97593.26
2018-12-10T20:01:44.726Z,97602.59
2018-12-10T20:04:21.604Z,97621.03
2018-12-10T20:06:59.355Z,97619.90
2018-12-10T20:09:31.895Z,97617.61
2018-12-10T20:12:04.271Z,97618.39
2018-12-10T20:14:37.310Z,97621.48
2018-12-10T20:17:15.124Z,97619.92
2018-12-10T20:19:48.518Z,97623.19
2018-12-10T20:22:21.586Z,97609.83
2018-12-10T20:24:51.887Z,97608.67
2018-12-10T20:27:22.921Z,97618.05
2018-12-10T20:30:00.021Z,97620.40
2018-12-10T20:32:30.346Z,97614.54
2018-12-10T20:35:01.384Z,97610.39
2018-12-10T20:37:34.558Z,97604.56
2018-12-10T20:40:10.972Z,97599.27
2018-12-10T20:42:42.037Z,97595.19
2018-12-10T20:45:19.128Z,97598.77
2018-12-10T20:47:52.336Z,97602.41
2018-12-10T20:50:28.394Z,97605.44
2018-12-10T20:53:02.176Z,97601.14
2018-12-10T20:55:35.339Z,97604.62
2018-12-10T20:58:07.427Z,97593.64
2018-12-10T21:00:39.803Z,97600.16
2018-12-10T21:03:17.186Z,97597.88
2018-12-10T21:05:55.877Z,97603.43
2018-12-10T21:08:28.178Z,97607.31
2018-12-10T21:11:01.228Z,97604.84
2018-12-10T21:13:37.567Z,97618.84
2018-12-10T21:16:09.935Z,97613.84
2018-12-10T21:18:43.178Z,97607.19
2018-12-10T21:21:16.054Z,97601.23
2018-12-10T21:23:49.123Z,97603.75
2018-12-10T21:26:25.346Z,97599.58
2018-12-10T21:29:01.747Z,97594.48
2018-12-10T21:31:38.137Z,97582.73
2018-12-10T21:34:11.199Z,97582.99
2018-12-10T21:36:44.199Z,97583.88
2018-12-10T21:39:17.288Z,97585.69
2018-12-10T21:41:50.373Z,97566.59
2018-12-10T21:44:22.954Z,97561.44
2018-12-10T21:46:55.943Z,97567.91
2018-12-10T21:49:33.003Z,97562.75
2018-12-10T21:52:09.264Z,97565.72
2018-12-10T21:54:46.426Z,97562.75
2018-12-10T21:57:19.327Z,97563.79
2018-12-10T21:59:55.749Z,97567.36
2018-12-10T22:02:32.060Z,97567.36
2018-12-10T22:05:05.407Z,97557.08
2018-12-10T22:07:38.275Z,97543.61
2018-12-10T22:10:10.527Z,97561.56
2018-12-10T22:12:46.764Z,97560.62
2018-12-10T22:15:19.831Z,97569.67
2018-12-10T22:17:52.546Z,97562.44
2018-12-10T22:20:24.656Z,97554.06
2018-12-10T22:22:57.049Z,97554.89
2018-12-10T22:25:30.032Z,97549.64
2018-12-10T22:28:03.007Z,97553.26
2018-12-10T22:30:37.163Z,97532.82
2018-12-10T22:33:10.842Z,97534.00
2018-12-10T22:35:42.184Z,97531.23
2018-12-10T22:38:15.141Z,97526.75
2018-12-10T22:40:48.986Z,97538.38
2018-12-10T22:43:23.191Z,97524.19
2018-12-10T22:46:00.367Z,97529.41
2018-12-10T22:48:31.458Z,97531.55
2018-12-10T22:51:02.450Z,97536.95
2018-12-10T22:53:38.712Z,97541.57
2018-12-10T22:56:15.671Z,97540.22
2018-12-10T22:58:51.821Z,97551.60
2018-12-10T23:01:28.029Z,97555.19
2018-12-10T23:04:00.257Z,97569.15
2018-12-10T23:11:33.733Z,97574.05
2018-12-10T23:14:06.625Z,97581.08
2018-12-10T23:16:39.623Z,97591.89
2018-12-10T23:19:11.795Z,97583.74
2018-12-10T23:21:44.079Z,97589.42
2018-12-10T23:24:16.884Z,97598.53
2018-12-10T23:26:49.308Z,97605.16
2018-12-10T23:29:25.522Z,97603.44
2018-12-10T23:32:01.767Z,97608.97
2018-12-10T23:34:33.889Z,97601.47
2018-12-10T23:37:07.378Z,97605.07
2018-12-10T23:39:40.408Z,97601.84
2018-12-10T23:42:13.467Z,97604.40
2018-12-10T23:44:51.148Z,97594.67
2018-12-10T23:47:28.000Z,97591.66
2018-12-10T23:50:05.241Z,97600.98
2018-12-10T23:52:38.364Z,97594.20
2018-12-10T23:55:08.383Z,97591.12
2018-12-10T23:57:40.426Z,97595.50
